Time;durP1;ratioP1;P1;durP2;ratioP2;P2;SDS_P1;SDS_P2;PMS_P1;PMS_P2;Temp;Humidity;BMP_temperature;BMP_pressure;BME280_temperature;BME280_humidity;BME280_pressure;Samples;Min_cycle;Max_cycle;Signal;HPM_P1;HPM_P2
2021/04/10 00:01:40;;;;;;;14.95;5.28;;;9.50;44.40;;;;;;5079629;28;20055;-70
2021/04/10 00:04:08;;;;;;;16.90;5.18;;;9.50;44.70;;;;;;5072306;28;20021;-70
2021/04/10 00:06:34;;;;;;;6.22;3.58;;;9.40;44.50;;;;;;5072161;28;20104;-70
2021/04/10 00:09:00;;;;;;;6.75;3.17;;;9.40;44.40;;;;;;5072297;28;20454;-70
2021/04/10 00:11:27;;;;;;;6.82;2.70;;;9.40;44.40;;;;;;5072182;28;20470;-69
2021/04/10 00:13:53;;;;;;;5.72;3.33;;;9.30;44.40;;;;;;5089976;28;20055;-70
2021/04/10 00:16:19;;;;;;;6.05;3.15;;;9.30;44.60;;;;;;5083251;28;20020;-69
2021/04/10 00:18:45;;;;;;;6.68;3.55;;;9.30;44.60;;;;;;5053898;28;20115;-69
2021/04/10 00:21:11;;;;;;;10.52;3.70;;;9.20;44.80;;;;;;5080623;28;20027;-70
2021/04/10 00:23:42;;;;;;;9.05;4.13;;;9.20;45.00;;;;;;5092086;28;20493;-69
2021/04/10 00:26:12;;;;;;;7.18;3.95;;;9.10;45.30;;;;;;5073935;28;20055;-70
2021/04/10 00:28:38;;;;;;;7.90;2.70;;;9.10;45.50;;;;;;5092031;28;20023;-70
2021/04/10 00:31:07;;;;;;;5.35;2.78;;;9.10;45.40;;;;;;5091765;28;20025;-71
2021/04/10 00:33:37;;;;;;;7.13;3.55;;;9.00;45.10;;;;;;5091337;28;20036;-69
2021/04/10 00:36:07;;;;;;;10.45;3.60;;;9.00;45.40;;;;;;5091967;28;20032;-70
2021/04/10 00:38:33;;;;;;;7.65;3.03;;;9.00;45.50;;;;;;5091989;28;20028;-69
2021/04/10 00:41:00;;;;;;;6.63;3.53;;;8.90;45.50;;;;;;5074820;28;20021;-69
2021/04/10 00:43:27;;;;;;;7.57;3.88;;;8.90;45.70;;;;;;5095999;28;20031;-71
2021/04/10 00:45:53;;;;;;;9.10;3.60;;;8.90;46.00;;;;;;5077792;28;20481;-69
2021/04/10 00:48:19;;;;;;;7.38;3.25;;;8.90;46.10;;;;;;5095763;28;20135;-70
2021/04/10 00:50:45;;;;;;;6.25;2.88;;;8.80;46.10;;;;;;5096021;28;20101;-70
2021/04/10 00:53:12;;;;;;;6.25;3.40;;;8.90;46.20;;;;;;5095862;28;20028;-69
2021/04/10 00:55:41;;;;;;;8.40;3.67;;;8.80;46.20;;;;;;5095800;28;20020;-70
2021/04/10 00:58:07;;;;;;;6.95;3.38;;;8.80;46.30;;;;;;5095752;28;20023;-70
2021/04/10 01:00:33;;;;;;;6.57;2.92;;;8.80;46.40;;;;;;5080136;28;20028;-70
2021/04/10 01:02:59;;;;;;;4.65;2.95;;;8.80;46.30;;;;;;5057529;28;20028;-70
2021/04/10 01:05:24;;;;;;;6.72;3.25;;;8.70;46.30;;;;;;5075398;28;20106;-70
2021/04/10 01:07:50;;;;;;;4.93;2.80;;;8.70;46.50;;;;;;5075250;28;20040;-69
2021/04/10 01:10:16;;;;;;;5.32;3.00;;;8.70;46.70;;;;;;5075222;28;20478;-69
2021/04/10 01:13:12;;;;;;;4.55;2.83;;;8.70;46.90;;;;;;5075135;28;20547;-70
2021/04/10 01:15:53;;;;;;;7.95;2.22;;;8.60;46.70;;;;;;5075119;28;20020;-70
2021/04/10 01:18:42;;;;;;;5.10;2.03;;;8.60;46.50;;;;;;5075108;28;20020;-70
2021/04/10 01:21:10;;;;;;;6.07;2.38;;;8.60;46.30;;;;;;5057510;28;20112;-69
2021/04/10 01:24:14;;;;;;;6.35;3.00;;;8.60;46.10;;;;;;5075036;28;20457;-69
2021/04/10 01:27:16;;;;;;;4.90;2.90;;;8.60;46.40;;;;;;5074984;28;20016;-70
2021/04/10 01:29:50;;;;;;;4.28;2.65;;;8.50;46.60;;;;;;5056798;28;20035;-69
2021/04/10 01:32:18;;;;;;;6.05;3.47;;;8.50;46.80;;;;;;5074889;28;20060;-69
2021/04/10 01:34:51;;;;;;;6.50;2.50;;;8.50;46.90;;;;;;5090801;28;20028;-70
2021/04/10 01:37:27;;;;;;;5.32;2.90;;;8.40;46.80;;;;;;5095019;28;20465;-70
2021/04/10 01:39:54;;;;;;;6.85;3.67;;;8.40;46.90;;;;;;5095095;28;20025;-71
2021/04/10 01:42:24;;;;;;;7.28;3.25;;;8.40;46.90;;;;;;5095012;28;20031;-70
2021/04/10 01:44:52;;;;;;;4.90;2.78;;;8.30;47.30;;;;;;5094888;28;20047;-70
2021/04/10 01:47:18;;;;;;;5.35;2.97;;;8.30;47.20;;;;;;5094768;28;20024;-69
2021/04/10 01:49:49;;;;;;;5.22;2.90;;;8.30;47.20;;;;;;5063794;28;20409;-70
2021/04/10 01:52:17;;;;;;;6.38;3.22;;;8.30;47.20;;;;;;5073126;28;20030;-68
2021/04/10 01:54:44;;;;;;;6.13;3.03;;;8.20;47.30;;;;;;5094585;28;20024;-70
2021/04/10 01:57:11;;;;;;;5.20;3.25;;;8.20;47.30;;;;;;5094591;28;20032;-70
2021/04/10 01:59:42;;;;;;;5.10;2.85;;;8.20;48.00;;;;;;5094494;28;20031;-70
2021/04/10 02:02:09;;;;;;;4.85;2.50;;;8.20;47.50;;;;;;5084445;28;20097;-69
2021/04/10 02:04:38;;;;;;;4.80;2.50;;;8.20;47.50;;;;;;5085607;28;20024;-70
2021/04/10 02:07:04;;;;;;;8.85;3.63;;;8.10;47.60;;;;;;5090947;28;20301;-69
2021/04/10 02:09:32;;;;;;;6.00;3.40;;;8.10;47.70;;;;;;5092183;28;20036;-72
2021/04/10 02:11:59;;;;;;;6.25;2.38;;;8.10;48.00;;;;;;5080030;28;20024;-69
2021/04/10 02:14:27;;;;;;;4.63;2.50;;;8.00;47.80;;;;;;5077875;28;20024;-70
2021/04/10 02:16:52;;;;;;;6.80;2.80;;;8.00;47.70;;;;;;5086261;28;20034;-69
2021/04/10 02:19:19;;;;;;;4.72;3.10;;;8.00;47.80;;;;;;5093352;28;20355;-70
2021/04/10 02:21:44;;;;;;;4.22;2.30;;;8.00;47.90;;;;;;5093213;28;20036;-71
2021/04/10 02:24:13;;;;;;;5.10;2.50;;;8.00;47.90;;;;;;5092998;28;20035;-69
2021/04/10 02:26:39;;;;;;;4.88;2.28;;;8.00;48.00;;;;;;5090068;28;20032;-70
2021/04/10 02:29:05;;;;;;;3.88;2.17;;;7.90;47.80;;;;;;5092239;28;20032;-69
2021/04/10 02:31:39;;;;;;;5.93;3.00;;;7.90;47.90;;;;;;5067195;28;20086;-70
2021/04/10 02:34:12;;;;;;;5.65;2.63;;;7.90;48.20;;;;;;5085038;28;20377;-71
2021/04/10 02:36:39;;;;;;;4.33;2.50;;;7.90;48.10;;;;;;5083833;28;20436;-70
2021/04/10 02:39:07;;;;;;;4.72;2.65;;;7.90;48.10;;;;;;5072840;28;20048;-70
2021/04/10 02:41:34;;;;;;;7.10;2.90;;;7.90;48.30;;;;;;5085830;28;20460;-70
2021/04/10 02:44:07;;;;;;;4.70;2.60;;;7.90;48.50;;;;;;5092902;28;20028;-70
2021/04/10 02:46:43;;;;;;;4.97;2.75;;;7.90;48.50;;;;;;5088211;28;20020;-70
2021/04/10 02:49:29;;;;;;;5.05;3.00;;;7.90;48.70;;;;;;5083651;28;20470;-69
2021/04/10 02:51:58;;;;;;;4.40;2.45;;;7.90;48.80;;;;;;5092565;28;20085;-70
2021/04/10 02:54:34;;;;;;;4.80;2.53;;;7.90;48.60;;;;;;5092646;28;20020;-69
2021/04/10 02:57:02;;;;;;;5.63;2.40;;;7.80;48.70;;;;;;5092213;28;20024;-69
2021/04/10 02:59:28;;;;;;;4.65;2.55;;;7.80;48.70;;;;;;5092586;28;20020;-70
2021/04/10 03:01:57;;;;;;;11.10;4.05;;;7.80;48.80;;;;;;5075936;28;20024;-69
2021/04/10 03:04:24;;;;;;;9.48;3.75;;;7.80;49.40;;;;;;5073258;28;20112;-69
2021/04/10 03:06:50;;;;;;;8.68;3.30;;;7.80;49.60;;;;;;5054226;28;20043;-69
2021/04/10 03:09:16;;;;;;;10.23;3.55;;;7.70;49.20;;;;;;5072227;28;20028;-70
2021/04/10 03:11:43;;;;;;;9.98;3.70;;;7.70;49.30;;;;;;5077000;28;20051;-71
2021/04/10 03:14:09;;;;;;;6.65;3.08;;;7.70;49.40;;;;;;5072049;28;20481;-70
2021/04/10 03:16:36;;;;;;;4.22;2.63;;;7.70;49.50;;;;;;5071961;28;20401;-70
2021/04/10 03:19:05;;;;;;;3.92;2.47;;;7.70;49.30;;;;;;5072168;28;20024;-70
2021/04/10 03:21:31;;;;;;;6.25;3.58;;;7.70;49.30;;;;;;5073857;28;20028;-70
2021/04/10 03:23:57;;;;;;;6.53;3.45;;;7.60;49.40;;;;;;5072319;28;20036;-69
2021/04/10 03:26:23;;;;;;;7.40;3.20;;;7.60;49.50;;;;;;5091976;28;20024;-71
2021/04/10 03:28:50;;;;;;;4.93;2.60;;;7.60;49.50;;;;;;5073649;28;20534;-70
2021/04/10 03:31:18;;;;;;;3.70;2.28;;;7.60;49.50;;;;;;5091789;28;20107;-70
2021/04/10 03:33:44;;;;;;;7.47;2.90;;;7.60;49.40;;;;;;5091631;28;20020;-70
2021/04/10 03:36:11;;;;;;;6.22;2.80;;;7.50;49.40;;;;;;5091451;28;20020;-69
2021/04/10 03:38:40;;;;;;;7.03;2.97;;;7.50;49.50;;;;;;5091605;28;20470;-70
2021/04/10 03:41:06;;;;;;;11.45;4.03;;;7.50;49.70;;;;;;5091563;28;20031;-70
2021/04/10 03:43:32;;;;;;;5.47;3.33;;;7.40;49.80;;;;;;5091803;28;20107;-70
2021/04/10 03:46:01;;;;;;;6.13;3.33;;;7.40;49.80;;;;;;5071871;28;20222;-70
2021/04/10 03:48:31;;;;;;;6.13;3.08;;;7.40;49.70;;;;;;5071478;28;20458;-70
2021/04/10 03:50:57;;;;;;;5.75;3.38;;;7.40;49.90;;;;;;5071733;28;20020;-70
2021/04/10 03:53:24;;;;;;;5.88;3.08;;;7.40;49.90;;;;;;5071330;28;20131;-70
2021/04/10 03:55:50;;;;;;;8.23;4.10;;;7.40;50.00;;;;;;5082454;28;20099;-70
2021/04/10 03:58:16;;;;;;;6.60;2.92;;;7.40;50.40;;;;;;5072874;28;20020;-69
2021/04/10 04:00:42;;;;;;;6.95;3.20;;;7.40;50.40;;;;;;5078194;28;20020;-70
2021/04/10 04:03:07;;;;;;;7.20;2.90;;;7.40;50.50;;;;;;5088582;28;20431;-70
2021/04/10 04:05:33;;;;;;;7.50;3.35;;;7.40;50.70;;;;;;5079301;28;20066;-69
2021/04/10 04:07:59;;;;;;;8.52;3.20;;;7.30;50.90;;;;;;5091329;28;20095;-70
2021/04/10 04:10:25;;;;;;;8.20;3.63;;;7.30;50.70;;;;;;5091347;28;20032;-70
2021/04/10 04:12:51;;;;;;;4.38;2.67;;;7.30;50.70;;;;;;5091254;28;20020;-70
2021/04/10 04:15:16;;;;;;;9.02;4.05;;;7.30;50.80;;;;;;5085025;28;20035;-70
2021/04/10 04:17:42;;;;;;;6.35;3.47;;;7.30;50.80;;;;;;5070873;28;20025;-70
2021/04/10 04:20:09;;;;;;;8.13;2.92;;;7.30;50.70;;;;;;5079506;28;20117;-69
2021/04/10 04:22:35;;;;;;;3.90;2.38;;;7.30;50.70;;;;;;5091130;28;20020;-70
2021/04/10 04:25:01;;;;;;;8.23;2.85;;;7.30;50.70;;;;;;5088182;28;20201;-70
2021/04/10 04:27:26;;;;;;;6.15;2.92;;;7.20;50.60;;;;;;5055614;28;20028;-70
2021/04/10 04:29:54;;;;;;;8.52;3.92;;;7.20;50.60;;;;;;5091118;28;20042;-69
2021/04/10 04:32:21;;;;;;;14.73;4.72;;;7.20;51.10;;;;;;5090856;28;20035;-69
2021/04/10 04:34:48;;;;;;;11.93;3.72;;;7.20;51.60;;;;;;5089896;28;20028;-70
2021/04/10 04:37:14;;;;;;;8.13;3.83;;;7.20;51.60;;;;;;5070819;28;20047;-70
2021/04/10 04:39:40;;;;;;;10.32;4.40;;;7.20;51.40;;;;;;5084070;28;20106;-69
2021/04/10 04:42:06;;;;;;;14.50;4.32;;;7.20;51.80;;;;;;5089408;28;20107;-70
2021/04/10 04:44:32;;;;;;;8.63;3.95;;;7.20;52.50;;;;;;5091106;28;20370;-70
2021/04/10 04:46:58;;;;;;;8.85;4.55;;;7.20;53.50;;;;;;5072890;28;20028;-70
2021/04/10 04:49:23;;;;;;;7.00;3.50;;;7.30;53.10;;;;;;5090706;28;20123;-70
2021/04/10 04:51:52;;;;;;;10.05;3.78;;;7.30;52.70;;;;;;5090759;28;20082;-69
2021/04/10 04:54:18;;;;;;;6.15;3.13;;;7.30;52.70;;;;;;5090330;28;20052;-69
2021/04/10 04:56:44;;;;;;;7.18;3.22;;;7.40;52.50;;;;;;5072837;28;20429;-69
2021/04/10 04:59:10;;;;;;;12.00;4.65;;;7.40;52.60;;;;;;5090600;28;20481;-70
2021/04/10 05:01:35;;;;;;;7.05;3.80;;;7.40;52.90;;;;;;5090839;28;20043;-69
2021/04/10 05:04:01;;;;;;;10.45;3.42;;;7.40;52.90;;;;;;5087325;28;20031;-69
2021/04/10 05:06:27;;;;;;;12.93;3.95;;;7.50;52.70;;;;;;5088663;28;20477;-70
2021/04/10 05:08:53;;;;;;;18.70;8.27;;;7.50;52.70;;;;;;5090651;28;20516;-70
2021/04/10 05:11:18;;;;;;;23.85;11.90;;;7.60;52.70;;;;;;5090779;28;20103;-70
2021/04/10 05:13:44;;;;;;;23.67;10.20;;;7.60;52.60;;;;;;5072600;28;20031;-70
2021/04/10 05:16:10;;;;;;;16.52;7.07;;;7.70;52.50;;;;;;5090804;28;20032;-69
2021/04/10 05:18:36;;;;;;;9.20;5.25;;;7.70;52.40;;;;;;5089418;28;20088;-70
2021/04/10 05:21:02;;;;;;;9.30;4.10;;;7.80;52.30;;;;;;5090706;28;20106;-69
2021/04/10 05:23:28;;;;;;;8.98;4.15;;;7.80;52.60;;;;;;5090711;28;20107;-71
2021/04/10 05:25:54;;;;;;;9.02;3.83;;;7.90;52.90;;;;;;5090811;28;20600;-70
2021/04/10 05:28:20;;;;;;;10.43;4.13;;;7.90;52.90;;;;;;5075201;28;20542;-70
2021/04/10 05:30:46;;;;;;;14.20;3.75;;;8.00;52.80;;;;;;5061716;28;20037;-70
2021/04/10 05:33:12;;;;;;;7.53;3.70;;;8.10;52.90;;;;;;5058787;28;20111;-71
2021/04/10 05:35:38;;;;;;;6.88;3.53;;;8.10;52.90;;;;;;5075902;28;20031;-70
2021/04/10 05:38:04;;;;;;;7.22;3.30;;;8.20;53.00;;;;;;5094493;28;20048;-70
2021/04/10 05:40:30;;;;;;;7.38;3.30;;;8.20;52.20;;;;;;5093847;28;20055;-68
2021/04/10 05:42:56;;;;;;;9.13;3.17;;;8.30;52.00;;;;;;5092338;28;20032;-70
2021/04/10 05:45:23;;;;;;;9.68;3.28;;;8.40;51.80;;;;;;5075845;28;20105;-70
2021/04/10 05:47:48;;;;;;;5.40;3.63;;;8.40;51.60;;;;;;5094035;28;20069;-70
2021/04/10 05:50:14;;;;;;;5.80;2.92;;;8.50;51.50;;;;;;5093787;28;20040;-70
2021/04/10 05:52:40;;;;;;;5.35;3.25;;;8.60;51.40;;;;;;5094566;28;20024;-70
2021/04/10 05:55:08;;;;;;;6.65;3.47;;;8.70;51.30;;;;;;5083617;28;20075;-71
2021/04/10 05:57:34;;;;;;;5.68;3.25;;;8.80;51.10;;;;;;5074361;28;20082;-71
2021/04/10 06:00:00;;;;;;;8.10;3.05;;;8.80;50.90;;;;;;5074682;28;20382;-71
2021/04/10 06:02:26;;;;;;;5.93;3.33;;;8.90;50.40;;;;;;5056897;28;20081;-70
2021/04/10 06:04:53;;;;;;;8.02;2.85;;;9.00;50.30;;;;;;5090929;28;20040;-69
2021/04/10 06:07:19;;;;;;;4.82;3.00;;;9.10;50.80;;;;;;5092326;28;20036;-70
2021/04/10 06:09:45;;;;;;;7.13;3.17;;;9.20;50.20;;;;;;5076196;28;20131;-69
2021/04/10 06:12:11;;;;;;;11.43;3.67;;;9.30;50.10;;;;;;5076009;28;20445;-69
2021/04/10 06:14:37;;;;;;;7.00;3.97;;;9.40;49.90;;;;;;5094254;28;20020;-70
2021/04/10 06:17:03;;;;;;;12.27;3.97;;;9.50;49.80;;;;;;5094007;28;20047;-71
2021/04/10 06:19:28;;;;;;;8.32;3.92;;;9.60;49.60;;;;;;5085006;28;20078;-70
2021/04/10 06:21:54;;;;;;;6.70;3.80;;;9.70;49.30;;;;;;5073878;28;20028;-71
2021/04/10 06:24:20;;;;;;;6.60;3.60;;;9.80;49.20;;;;;;5073929;28;20073;-69
2021/04/10 06:26:46;;;;;;;12.38;4.40;;;9.90;49.00;;;;;;5073756;28;20115;-69
2021/04/10 06:29:13;;;;;;;11.73;3.75;;;10.00;48.90;;;;;;5073837;28;20036;-69
2021/04/10 06:31:40;;;;;;;7.75;3.80;;;10.10;48.50;;;;;;5061922;28;20027;-70
2021/04/10 06:34:06;;;;;;;8.15;3.42;;;10.10;48.40;;;;;;5093486;28;20035;-70
2021/04/10 06:36:32;;;;;;;9.38;3.58;;;10.30;48.50;;;;;;5093681;28;20470;-71
2021/04/10 06:38:58;;;;;;;6.25;3.40;;;10.30;48.60;;;;;;5093058;28;20032;-70
2021/04/10 06:41:24;;;;;;;6.15;3.40;;;10.40;48.60;;;;;;5093562;28;20040;-71
2021/04/10 06:43:50;;;;;;;8.18;3.58;;;10.50;48.60;;;;;;5092846;28;20103;-71
2021/04/10 06:46:17;;;;;;;11.15;4.35;;;10.60;48.60;;;;;;5073301;28;20500;-71
2021/04/10 06:48:44;;;;;;;11.55;3.38;;;10.70;48.50;;;;;;5073215;28;20044;-70
2021/04/10 06:51:12;;;;;;;12.95;3.40;;;10.80;48.50;;;;;;5080743;28;20026;-70
2021/04/10 06:53:46;;;;;;;10.50;3.65;;;10.80;48.20;;;;;;5093395;28;20028;-71
2021/04/10 06:56:19;;;;;;;9.70;3.55;;;10.90;48.20;;;;;;5092907;28;20089;-71
2021/04/10 06:59:24;;;;;;;8.07;4.10;;;11.00;48.10;;;;;;5072968;28;20462;-70
2021/04/10 07:01:51;;;;;;;6.53;3.50;;;11.10;47.80;;;;;;5072424;28;20121;-70
2021/04/10 07:04:18;;;;;;;9.93;4.43;;;11.20;47.80;;;;;;5084318;28;20028;-70
2021/04/10 07:06:44;;;;;;;12.98;3.92;;;11.30;47.80;;;;;;5093202;28;20071;-71
2021/04/10 07:09:11;;;;;;;13.10;3.63;;;11.40;47.70;;;;;;5090156;28;20036;-71
2021/04/10 07:11:37;;;;;;;6.68;3.42;;;11.50;47.40;;;;;;5072742;28;20031;-70
2021/04/10 07:14:03;;;;;;;7.70;3.55;;;11.50;47.20;;;;;;5072815;28;20036;-71
2021/04/10 07:16:37;;;;;;;8.10;3.85;;;11.60;47.00;;;;;;5072760;28;20071;-71
2021/04/10 07:19:10;;;;;;;;;;;11.70;46.90;;;;;;5055292;28;20478;-69
2021/04/10 07:21:36;;;;;;;8.13;3.45;;;11.80;47.10;;;;;;5089320;28;20348;-70
2021/04/10 07:24:02;;;;;;;7.05;3.78;;;11.90;46.80;;;;;;5093123;28;20051;-71
2021/04/10 07:26:52;;;;;;;9.38;4.00;;;11.90;46.70;;;;;;5093059;28;20354;-71
2021/04/10 07:29:33;;;;;;;7.20;4.07;;;12.00;46.60;;;;;;5092940;28;20091;-70
2021/04/10 07:32:00;;;;;;;18.05;5.25;;;12.10;46.60;;;;;;5092601;28;20032;-71
2021/04/10 07:34:28;;;;;;;12.23;4.70;;;12.20;46.80;;;;;;5084555;28;20024;-69
2021/04/10 07:36:59;;;;;;;10.20;3.97;;;12.20;46.60;;;;;;5054540;28;20070;-70
2021/04/10 07:39:25;;;;;;;6.50;4.07;;;12.40;46.70;;;;;;5079794;28;20012;-70
2021/04/10 07:42:04;;;;;;;6.20;4.00;;;12.50;46.60;;;;;;5092645;28;20016;-71
2021/04/10 07:44:37;;;;;;;15.73;5.13;;;12.60;46.20;;;;;;5092531;28;20024;-73
2021/04/10 07:47:04;;;;;;;9.57;4.07;;;12.70;46.00;;;;;;5090780;28;20150;-70
2021/04/10 07:49:30;;;;;;;8.52;3.95;;;12.90;45.70;;;;;;5092194;28;20036;-71
2021/04/10 07:51:59;;;;;;;9.82;4.38;;;13.00;45.50;;;;;;5092328;28;20051;-70
2021/04/10 07:54:30;;;;;;;11.50;5.10;;;13.10;45.30;;;;;;5092363;28;20020;-70
2021/04/10 07:57:10;;;;;;;14.75;5.15;;;13.20;44.60;;;;;;5092281;28;20023;-70
2021/04/10 07:59:53;;;;;;;6.72;3.90;;;13.30;44.40;;;;;;5090736;28;20024;-70
2021/04/10 08:02:21;;;;;;;9.23;4.40;;;13.50;44.30;;;;;;5092335;28;20043;-72
2021/04/10 08:05:02;;;;;;;11.75;4.35;;;13.60;44.20;;;;;;5089411;28;20024;-71
2021/04/10 08:07:32;;;;;;;8.73;4.80;;;13.70;44.20;;;;;;5091927;28;20027;-71
2021/04/10 08:10:00;;;;;;;11.18;4.65;;;13.80;44.50;;;;;;5091300;28;20078;-72
2021/04/10 08:12:46;;;;;;;11.77;4.93;;;13.90;44.40;;;;;;5053676;28;20028;-70
2021/04/10 08:15:25;;;;;;;10.73;5.15;;;14.00;44.40;;;;;;5071489;28;20052;-72
2021/04/10 08:17:51;;;;;;;12.50;4.97;;;14.10;44.10;;;;;;5085842;28;20034;-71
2021/04/10 08:20:24;;;;;;;9.75;5.32;;;14.20;43.50;;;;;;5084243;28;20100;-70
2021/04/10 08:22:51;;;;;;;22.10;5.30;;;14.30;43.30;;;;;;5074562;28;20298;-71
2021/04/10 08:25:30;;;;;;;13.68;5.00;;;14.40;42.80;;;;;;5091974;28;20028;-70
2021/04/10 08:27:57;;;;;;;10.30;5.45;;;14.50;42.60;;;;;;5091839;28;20051;-69
2021/04/10 08:30:24;;;;;;;10.20;5.35;;;14.50;42.30;;;;;;5061151;28;20029;-72
2021/04/10 08:32:50;;;;;;;9.95;4.70;;;14.60;42.30;;;;;;5078000;28;20366;-69
2021/04/10 08:35:16;;;;;;;11.38;4.65;;;14.70;42.40;;;;;;5091375;28;20035;-71
2021/04/10 08:37:43;;;;;;;10.32;5.32;;;14.80;42.10;;;;;;5073771;28;20023;-72
2021/04/10 08:40:10;;;;;;;10.60;4.68;;;14.80;42.10;;;;;;5081595;28;20363;-71
2021/04/10 08:42:41;;;;;;;9.23;5.15;;;14.90;41.80;;;;;;5071936;28;20044;-71
2021/04/10 08:45:09;;;;;;;7.68;4.55;;;15.00;41.30;;;;;;5071679;28;20016;-71
2021/04/10 08:47:37;;;;;;;9.63;5.18;;;15.10;41.20;;;;;;5072431;28;20028;-70
2021/04/10 08:50:03;;;;;;;8.55;4.25;;;15.20;41.10;;;;;;5073412;28;20048;-70
2021/04/10 08:52:33;;;;;;;8.35;3.70;;;15.30;40.80;;;;;;5083004;28;20032;-71
2021/04/10 08:55:00;;;;;;;8.43;4.40;;;15.40;40.10;;;;;;5072174;28;20027;-70
2021/04/10 08:57:43;;;;;;;8.55;3.72;;;15.50;39.60;;;;;;5073745;28;20746;-71
2021/04/10 09:00:27;;;;;;;10.60;4.03;;;15.60;39.30;;;;;;5062058;28;20021;-70
2021/04/10 09:02:58;;;;;;;9.85;4.90;;;15.70;39.00;;;;;;5074051;28;20020;-72
2021/04/10 09:05:44;;;;;;;11.02;4.53;;;15.80;39.00;;;;;;5090145;28;20027;-71
2021/04/10 09:08:21;;;;;;;7.82;4.05;;;16.00;38.30;;;;;;5088432;28;20513;-72
2021/04/10 09:10:48;;;;;;;7.72;4.00;;;16.10;38.40;;;;;;5074940;28;20081;-72
2021/04/10 09:13:14;;;;;;;12.15;4.53;;;16.20;38.00;;;;;;5056724;28;20101;-71
2021/04/10 09:15:40;;;;;;;9.55;4.18;;;16.40;37.60;;;;;;5074745;28;20492;-71
2021/04/10 09:18:07;;;;;;;6.60;3.33;;;16.50;37.60;;;;;;5074790;28;20103;-71
2021/04/10 09:20:49;;;;;;;4.85;2.80;;;16.60;36.20;;;;;;5081736;28;20101;-70
2021/04/10 09:23:17;;;;;;;14.10;4.78;;;16.80;36.00;;;;;;5095103;28;20020;-71
2021/04/10 09:26:04;;;;;;;8.27;4.00;;;16.80;35.30;;;;;;5067887;28;20105;-71
2021/04/10 09:28:32;;;;;;;8.20;4.43;;;16.90;35.20;;;;;;5074755;28;20028;-69
2021/04/10 09:30:58;;;;;;;7.38;4.00;;;17.00;34.70;;;;;;5074747;28;20036;-71
2021/04/10 09:33:33;;;;;;;10.20;4.40;;;17.10;34.80;;;;;;5088025;28;20493;-71
2021/04/10 09:35:59;;;;;;;9.20;4.85;;;17.20;34.60;;;;;;5094953;28;20016;-71
2021/04/10 09:38:41;;;;;;;8.50;4.25;;;17.30;34.10;;;;;;5094866;28;20100;-72
2021/04/10 09:41:08;;;;;;;13.15;4.72;;;17.30;34.20;;;;;;5094660;28;20019;-71
2021/04/10 09:43:35;;;;;;;9.43;4.15;;;17.50;33.90;;;;;;5076460;28;20024;-71
2021/04/10 09:46:00;;;;;;;6.70;4.00;;;17.60;33.90;;;;;;5088441;28;20031;-71
2021/04/10 09:48:28;;;;;;;11.20;4.65;;;17.60;34.40;;;;;;5093534;28;20043;-71
2021/04/10 09:50:54;;;;;;;8.15;5.05;;;17.80;33.90;;;;;;5093258;28;20031;-71
2021/04/10 09:53:24;;;;;;;10.75;5.50;;;17.90;34.00;;;;;;5070053;28;20033;-72
2021/04/10 09:56:05;;;;;;;14.20;5.07;;;18.00;33.80;;;;;;5070190;28;20035;-71
2021/04/10 09:58:49;;;;;;;11.05;4.57;;;18.20;33.80;;;;;;5090413;28;20012;-71
2021/04/10 10:01:20;;;;;;;16.75;6.25;;;18.30;32.70;;;;;;5094120;28;20020;-72
2021/04/10 10:03:47;;;;;;;9.52;4.50;;;18.40;32.00;;;;;;5093542;28;20537;-72
2021/04/10 10:06:20;;;;;;;14.85;4.93;;;18.50;32.00;;;;;;5076027;28;20138;-70
2021/04/10 10:08:47;;;;;;;7.43;4.33;;;18.60;32.20;;;;;;5071652;28;20028;-71
2021/04/10 10:11:14;;;;;;;8.23;3.78;;;18.70;32.10;;;;;;5081236;28;20093;-70
2021/04/10 10:13:40;;;;;;;11.02;4.35;;;18.90;32.20;;;;;;5072560;28;20390;-71
2021/04/10 10:16:07;;;;;;;10.60;4.75;;;18.90;31.40;;;;;;5056316;28;20044;-72
2021/04/10 10:18:34;;;;;;;11.23;4.22;;;19.00;32.10;;;;;;5090101;28;20028;-72
2021/04/10 10:21:17;;;;;;;8.15;4.15;;;19.10;31.40;;;;;;5090899;28;20029;-72
2021/04/10 10:23:46;;;;;;;8.98;5.05;;;19.20;31.30;;;;;;5073923;28;20489;-71
2021/04/10 10:26:14;;;;;;;9.50;4.10;;;19.30;30.90;;;;;;5073765;28;20466;-72
2021/04/10 10:28:42;;;;;;;7.65;4.22;;;19.30;30.30;;;;;;5073760;28;20036;-71
2021/04/10 10:31:11;;;;;;;11.02;4.93;;;19.40;30.70;;;;;;5073489;28;20024;-72
2021/04/10 10:33:38;;;;;;;12.73;4.47;;;19.50;30.40;;;;;;5077337;28;20020;-71
2021/04/10 10:36:05;;;;;;;12.43;4.47;;;19.60;29.80;;;;;;5066880;28;20227;-71
2021/04/10 10:38:33;;;;;;;6.85;3.70;;;19.60;30.00;;;;;;5064099;28;20043;-70
2021/04/10 10:40:59;;;;;;;10.18;4.07;;;19.70;30.40;;;;;;5081881;28;20487;-72
2021/04/10 10:43:26;;;;;;;8.93;3.92;;;19.70;30.10;;;;;;5092617;28;20493;-71
2021/04/10 10:45:58;;;;;;;6.70;3.15;;;19.80;30.50;;;;;;5092024;28;21527;-72
2021/04/10 10:48:36;;;;;;;8.60;3.72;;;19.90;30.00;;;;;;5088057;28;20036;-72
2021/04/10 10:51:09;;;;;;;5.30;3.35;;;20.00;29.60;;;;;;5078941;28;20043;-71
2021/04/10 10:53:44;;;;;;;4.90;3.03;;;20.10;29.50;;;;;;5064284;28;20419;-73
2021/04/10 10:56:20;;;;;;;4.88;2.90;;;20.20;29.40;;;;;;5074789;28;20382;-72
2021/04/10 10:58:57;;;;;;;4.70;2.50;;;20.30;29.40;;;;;;5081479;28;20440;-73
2021/04/10 11:01:31;;;;;;;7.00;2.50;;;20.40;28.40;;;;;;5054182;28;20482;-71
2021/04/10 11:04:07;;;;;;;3.87;1.93;;;20.50;27.80;;;;;;5091461;28;20435;-71
2021/04/10 11:06:35;;;;;;;2.97;1.60;;;20.60;27.00;;;;;;5088977;28;20031;-71
2021/04/10 11:09:04;;;;;;;4.80;1.75;;;20.70;26.70;;;;;;5077833;28;20032;-72
2021/04/10 11:11:36;;;;;;;4.90;1.88;;;20.70;26.40;;;;;;5097395;28;20077;-70
2021/04/10 11:14:04;;;;;;;10.27;2.13;;;20.70;25.00;;;;;;5092008;28;20023;-72
2021/04/10 11:16:30;;;;;;;6.93;2.13;;;20.80;25.20;;;;;;5092276;28;20430;-71
2021/04/10 11:18:57;;;;;;;8.05;1.85;;;20.70;24.90;;;;;;5073453;28;20039;-70
2021/04/10 11:21:31;;;;;;;6.72;2.13;;;20.70;24.50;;;;;;5073602;28;20362;-72
2021/04/10 11:23:56;;;;;;;7.27;1.70;;;20.70;24.80;;;;;;5073231;28;20027;-72
2021/04/10 11:26:33;;;;;;;5.13;1.70;;;20.70;24.90;;;;;;5071351;28;20020;-70
2021/04/10 11:29:35;;;;;;;8.50;2.03;;;20.70;25.20;;;;;;5083042;28;20024;-71
2021/04/10 11:32:04;;;;;;;3.78;1.55;;;20.60;25.60;;;;;;4954808;28;20600;-72
2021/04/10 11:34:53;;;;;;;3.45;1.60;;;20.70;24.90;;;;;;4969791;28;20043;-73
2021/04/10 11:37:22;;;;;;;4.65;1.80;;;20.60;25.10;;;;;;4985504;28;20022;-72
2021/04/10 11:39:53;;;;;;;4.22;1.98;;;20.70;25.40;;;;;;4985910;28;20029;-72
2021/04/10 11:42:28;;;;;;;2.92;1.45;;;20.60;25.30;;;;;;4972665;28;20027;-72
2021/04/10 11:44:57;;;;;;;4.38;1.75;;;20.70;25.20;;;;;;4989100;28;20076;-72
2021/04/10 11:47:28;;;;;;;3.05;1.70;;;20.70;25.40;;;;;;4989517;28;20420;-71
2021/04/10 11:50:08;;;;;;;3.75;1.85;;;20.70;24.80;;;;;;4989585;28;20535;-72
2021/04/10 11:52:34;;;;;;;6.60;2.10;;;20.70;25.30;;;;;;4989276;28;20452;-71
2021/04/10 11:55:18;;;;;;;3.45;1.77;;;20.80;25.00;;;;;;4989353;28;20092;-71
2021/04/10 11:57:46;;;;;;;8.13;2.47;;;20.80;25.40;;;;;;4985283;28;20428;-70
2021/04/10 12:00:23;;;;;;;4.85;1.60;;;20.80;24.50;;;;;;4970168;28;20069;-71
2021/04/10 12:02:49;;;;;;;4.38;1.88;;;20.80;25.00;;;;;;4979908;28;20047;-72
2021/04/10 12:05:22;;;;;;;5.40;2.10;;;20.90;25.10;;;;;;4988126;28;20447;-72
2021/04/10 12:08:10;;;;;;;5.70;1.77;;;20.90;25.00;;;;;;5075204;28;20024;-72
2021/04/10 12:10:48;;;;;;;14.43;2.90;;;20.90;24.60;;;;;;5089722;28;20118;-72
2021/04/10 12:13:16;;;;;;;10.20;2.20;;;20.90;23.80;;;;;;5072394;28;20028;-71
2021/04/10 12:15:42;;;;;;;6.85;1.95;;;20.90;24.20;;;;;;5072838;28;20362;-73
2021/04/10 12:18:10;;;;;;;7.63;2.17;;;21.00;24.40;;;;;;5091264;28;20107;-71
2021/04/10 12:20:38;;;;;;;5.95;2.65;;;21.00;24.70;;;;;;5085608;28;20029;-72
2021/04/10 12:23:05;;;;;;;3.55;1.98;;;21.10;24.60;;;;;;5053140;28;20500;-71
2021/04/10 12:25:31;;;;;;;3.63;1.73;;;21.10;24.80;;;;;;5053268;28;20107;-71
2021/04/10 12:27:57;;;;;;;4.32;2.38;;;21.20;24.60;;;;;;5090814;28;20112;-70
2021/04/10 12:30:23;;;;;;;5.05;2.33;;;21.20;24.50;;;;;;5090874;28;20487;-72
2021/04/10 12:32:49;;;;;;;3.15;1.50;;;21.30;24.50;;;;;;5080165;28;20032;-71
2021/04/10 12:35:15;;;;;;;6.22;1.65;;;21.30;23.50;;;;;;5071445;28;20546;-73
2021/04/10 12:37:41;;;;;;;2.67;1.20;;;21.40;24.00;;;;;;5074604;28;20477;-72
2021/04/10 12:40:09;;;;;;;5.28;1.65;;;21.40;24.20;;;;;;5067676;28;20039;-72
2021/04/10 12:42:35;;;;;;;3.67;1.55;;;21.50;23.60;;;;;;5081175;28;20389;-71
2021/04/10 12:45:03;;;;;;;5.47;1.65;;;21.50;23.60;;;;;;5095061;28;20024;-72
2021/04/10 12:47:29;;;;;;;11.57;1.77;;;21.60;24.00;;;;;;5094901;28;20032;-71
2021/04/10 12:49:55;;;;;;;3.85;1.35;;;21.60;23.00;;;;;;5094891;28;20056;-71
2021/04/10 12:52:21;;;;;;;4.00;1.90;;;21.70;23.50;;;;;;5070307;28;20024;-71
2021/04/10 12:54:48;;;;;;;6.90;2.00;;;21.70;23.30;;;;;;5074818;28;20017;-72
2021/04/10 12:57:15;;;;;;;2.80;1.70;;;21.70;23.40;;;;;;5074742;28;20474;-73
2021/04/10 12:59:41;;;;;;;2.88;1.30;;;21.80;23.00;;;;;;5065663;28;20028;-73
2021/04/10 13:02:07;;;;;;;3.88;1.58;;;21.80;22.90;;;;;;5072303;28;20069;-72